sensor_id;sensor_type;location;lat;lon;timestamp;pressure;altitude;pressure_sealevel;temperature;humidity
10518;BME280;5307;42.548;22.968;2023-09-19T00:00:21;94225.53;;;14.58;100.00
10518;BME280;5307;42.548;22.968;2023-09-19T00:02:53;94243.59;;;14.50;100.00
10518;BME280;5307;42.548;22.968;2023-09-19T00:05:24;94238.63;;;14.63;100.00
10518;BME280;5307;42.548;22.968;2023-09-19T00:07:55;94239.09;;;14.62;100.00
10518;BME280;5307;42.548;22.968;2023-09-19T00:10:24;94224.28;;;14.59;100.00
10518;BME280;5307;42.548;22.968;2023-09-19T00:12:54;94228.56;;;14.60;100.00
10518;BME280;5307;42.548;22.968;2023-09-19T00:15:22;94226.47;;;14.55;100.00
10518;BME280;5307;42.548;22.968;2023-09-19T00:17:48;94227.69;;;14.54;100.00
10518;BME280;5307;42.548;22.968;2023-09-19T00:20:18;94226.75;;;14.57;100.00
10518;BME280;5307;42.548;22.968;2023-09-19T00:22:46;94221.53;;;14.59;100.00
10518;BME280;5307;42.548;22.968;2023-09-19T00:25:14;94223.53;;;14.59;100.00
10518;BME280;5307;42.548;22.968;2023-09-19T00:27:41;94225.41;;;14.43;100.00
10518;BME280;5307;42.548;22.968;2023-09-19T00:30:12;94229.22;;;14.46;100.00
10518;BME280;5307;42.548;22.968;2023-09-19T00:32:42;94228.75;;;14.47;100.00
10518;BME280;5307;42.548;22.968;2023-09-19T00:35:09;94222.78;;;14.49;100.00
10518;BME280;5307;42.548;22.968;2023-09-19T00:37:37;94217.03;;;14.29;100.00
10518;BME280;5307;42.548;22.968;2023-09-19T00:40:06;94214.66;;;14.03;100.00
10518;BME280;5307;42.548;22.968;2023-09-19T00:42:37;94212.75;;;14.37;100.00
10518;BME280;5307;42.548;22.968;2023-09-19T00:45:06;94212.78;;;14.18;100.00
10518;BME280;5307;42.548;22.968;2023-09-19T00:47:36;94199.34;;;14.20;100.00
10518;BME280;5307;42.548;22.968;2023-09-19T00:50:04;94205.06;;;14.08;100.00
10518;BME280;5307;42.548;22.968;2023-09-19T00:52:33;94211.53;;;14.29;100.00
10518;BME280;5307;42.548;22.968;2023-09-19T00:55:02;94218.00;;;14.16;100.00
10518;BME280;5307;42.548;22.968;2023-09-19T00:57:29;94218.28;;;14.27;100.00
10518;BME280;5307;42.548;22.968;2023-09-19T01:00:00;94210.38;;;14.02;100.00
10518;BME280;5307;42.548;22.968;2023-09-19T01:02:31;94209.91;;;14.04;100.00
10518;BME280;5307;42.548;22.968;2023-09-19T01:04:59;94204.59;;;14.09;100.00
10518;BME280;5307;42.548;22.968;2023-09-19T01:07:26;94205.81;;;14.08;100.00
10518;BME280;5307;42.548;22.968;2023-09-19T01:09:55;94209.78;;;13.98;100.00
10518;BME280;5307;42.548;22.968;2023-09-19T01:12:30;94211.75;;;14.07;100.00
10518;BME280;5307;42.548;22.968;2023-09-19T01:15:06;94213.28;;;14.08;100.00
10518;BME280;5307;42.548;22.968;2023-09-19T01:17:44;94210.72;;;13.95;100.00
10518;BME280;5307;42.548;22.968;2023-09-19T01:20:30;94207.22;;;13.94;100.00
10518;BME280;5307;42.548;22.968;2023-09-19T01:23:08;94218.03;;;13.89;100.00
10518;BME280;5307;42.548;22.968;2023-09-19T01:26:03;94213.75;;;13.79;100.00
10518;BME280;5307;42.548;22.968;2023-09-19T01:28:40;94224.44;;;13.86;100.00
10518;BME280;5307;42.548;22.968;2023-09-19T01:31:11;94215.28;;;13.98;100.00
10518;BME280;5307;42.548;22.968;2023-09-19T01:33:55;94210.72;;;13.77;100.00
10518;BME280;5307;42.548;22.968;2023-09-19T01:36:28;94201.38;;;13.92;100.00
10518;BME280;5307;42.548;22.968;2023-09-19T01:38:57;94217.13;;;13.83;100.00
10518;BME280;5307;42.548;22.968;2023-09-19T01:41:35;94218.00;;;14.07;100.00
10518;BME280;5307;42.548;22.968;2023-09-19T01:44:06;94209.19;;;13.94;100.00
10518;BME280;5307;42.548;22.968;2023-09-19T01:46:40;94195.78;;;13.87;100.00
10518;BME280;5307;42.548;22.968;2023-09-19T01:49:18;94198.69;;;13.83;100.00
10518;BME280;5307;42.548;22.968;2023-09-19T01:51:55;94195.63;;;13.81;100.00
10518;BME280;5307;42.548;22.968;2023-09-19T01:54:27;94198.09;;;13.70;100.00
10518;BME280;5307;42.548;22.968;2023-09-19T01:57:00;94202.19;;;13.84;100.00
10518;BME280;5307;42.548;22.968;2023-09-19T01:59:35;94203.66;;;14.03;100.00
10518;BME280;5307;42.548;22.968;2023-09-19T02:02:08;94207.66;;;13.93;100.00
10518;BME280;5307;42.548;22.968;2023-09-19T02:04:36;94207.34;;;13.91;100.00
10518;BME280;5307;42.548;22.968;2023-09-19T02:07:03;94201.88;;;13.73;100.00
10518;BME280;5307;42.548;22.968;2023-09-19T02:09:31;94200.66;;;13.46;100.00
10518;BME280;5307;42.548;22.968;2023-09-19T02:12:00;94209.06;;;13.52;100.00
10518;BME280;5307;42.548;22.968;2023-09-19T02:14:27;94208.31;;;13.51;100.00
10518;BME280;5307;42.548;22.968;2023-09-19T02:16:55;94218.66;;;13.56;100.00
10518;BME280;5307;42.548;22.968;2023-09-19T02:19:23;94202.06;;;13.42;100.00
10518;BME280;5307;42.548;22.968;2023-09-19T02:21:51;94200.22;;;13.57;100.00
10518;BME280;5307;42.548;22.968;2023-09-19T02:24:18;94193.66;;;13.54;100.00
10518;BME280;5307;42.548;22.968;2023-09-19T02:26:44;94195.66;;;13.54;100.00
10518;BME280;5307;42.548;22.968;2023-09-19T02:29:11;94191.06;;;13.42;100.00
10518;BME280;5307;42.548;22.968;2023-09-19T02:31:39;94188.47;;;13.47;100.00
10518;BME280;5307;42.548;22.968;2023-09-19T02:34:06;94179.66;;;13.52;100.00
10518;BME280;5307;42.548;22.968;2023-09-19T02:36:35;94175.97;;;13.46;100.00
10518;BME280;5307;42.548;22.968;2023-09-19T02:39:02;94173.41;;;13.52;100.00
10518;BME280;5307;42.548;22.968;2023-09-19T02:41:31;94170.78;;;13.48;100.00
10518;BME280;5307;42.548;22.968;2023-09-19T02:43:58;94176.31;;;13.39;100.00
10518;BME280;5307;42.548;22.968;2023-09-19T02:46:26;94181.44;;;13.64;100.00
10518;BME280;5307;42.548;22.968;2023-09-19T02:49:03;94179.00;;;13.76;100.00
10518;BME280;5307;42.548;22.968;2023-09-19T02:51:32;94177.19;;;13.45;100.00
10518;BME280;5307;42.548;22.968;2023-09-19T02:54:01;94186.81;;;13.41;100.00
10518;BME280;5307;42.548;22.968;2023-09-19T02:56:29;94186.34;;;13.42;100.00
10518;BME280;5307;42.548;22.968;2023-09-19T02:58:57;94192.44;;;13.19;100.00
10518;BME280;5307;42.548;22.968;2023-09-19T03:01:26;94191.38;;;13.34;100.00
10518;BME280;5307;42.548;22.968;2023-09-19T03:03:53;94180.09;;;13.42;100.00
10518;BME280;5307;42.548;22.968;2023-09-19T03:06:20;94177.19;;;13.36;100.00
10518;BME280;5307;42.548;22.968;2023-09-19T03:08:47;94163.78;;;13.29;100.00
10518;BME280;5307;42.548;22.968;2023-09-19T03:11:18;94157.09;;;13.30;100.00
10518;BME280;5307;42.548;22.968;2023-09-19T03:13:51;94161.50;;;13.27;100.00
10518;BME280;5307;42.548;22.968;2023-09-19T03:16:18;94163.78;;;13.20;100.00
10518;BME280;5307;42.548;22.968;2023-09-19T03:18:47;94157.19;;;13.08;100.00
10518;BME280;5307;42.548;22.968;2023-09-19T03:21:14;94159.19;;;13.17;100.00
10518;BME280;5307;42.548;22.968;2023-09-19T03:23:41;94174.91;;;13.44;100.00
10518;BME280;5307;42.548;22.968;2023-09-19T03:26:11;94172.03;;;13.29;100.00
10518;BME280;5307;42.548;22.968;2023-09-19T03:28:39;94175.38;;;13.24;100.00
10518;BME280;5307;42.548;22.968;2023-09-19T03:31:06;94176.56;;;13.50;100.00
10518;BME280;5307;42.548;22.968;2023-09-19T03:33:33;94183.25;;;13.03;100.00
10518;BME280;5307;42.548;22.968;2023-09-19T03:36:01;94176.41;;;13.17;100.00
10518;BME280;5307;42.548;22.968;2023-09-19T03:38:30;94177.66;;;13.25;100.00
10518;BME280;5307;42.548;22.968;2023-09-19T03:40:57;94176.25;;;13.12;100.00
10518;BME280;5307;42.548;22.968;2023-09-19T03:43:24;94182.31;;;13.06;100.00
10518;BME280;5307;42.548;22.968;2023-09-19T03:45:52;94175.78;;;13.13;100.00
10518;BME280;5307;42.548;22.968;2023-09-19T03:48:20;94182.50;;;13.21;100.00
10518;BME280;5307;42.548;22.968;2023-09-19T03:50:47;94178.72;;;13.28;100.00
10518;BME280;5307;42.548;22.968;2023-09-19T03:53:14;94177.78;;;13.13;100.00
10518;BME280;5307;42.548;22.968;2023-09-19T03:55:40;94183.44;;;13.18;100.00
10518;BME280;5307;42.548;22.968;2023-09-19T03:58:08;94193.00;;;13.14;100.00
10518;BME280;5307;42.548;22.968;2023-09-19T04:00:35;94181.75;;;13.21;100.00
10518;BME280;5307;42.548;22.968;2023-09-19T04:03:04;94173.81;;;13.14;100.00
10518;BME280;5307;42.548;22.968;2023-09-19T04:05:31;94177.59;;;13.07;100.00
10518;BME280;5307;42.548;22.968;2023-09-19T04:07:59;94178.94;;;12.93;100.00
10518;BME280;5307;42.548;22.968;2023-09-19T04:10:25;94182.63;;;12.99;100.00
10518;BME280;5307;42.548;22.968;2023-09-19T04:12:54;94188.28;;;13.14;100.00
10518;BME280;5307;42.548;22.968;2023-09-19T04:15:21;94171.41;;;13.25;100.00
10518;BME280;5307;42.548;22.968;2023-09-19T04:17:48;94176.97;;;12.85;100.00
10518;BME280;5307;42.548;22.968;2023-09-19T04:20:17;94182.31;;;13.06;100.00
10518;BME280;5307;42.548;22.968;2023-09-19T04:22:45;94181.28;;;13.22;100.00
10518;BME280;5307;42.548;22.968;2023-09-19T04:25:11;94184.19;;;13.19;100.00
10518;BME280;5307;42.548;22.968;2023-09-19T04:27:38;94180.22;;;13.20;100.00
10518;BME280;5307;42.548;22.968;2023-09-19T04:30:08;94183.28;;;13.31;100.00
10518;BME280;5307;42.548;22.968;2023-09-19T04:32:37;94175.97;;;13.46;100.00
10518;BME280;5307;42.548;22.968;2023-09-19T04:35:06;94167.91;;;13.24;100.00
10518;BME280;5307;42.548;22.968;2023-09-19T04:37:37;94178.38;;;13.17;100.00
10518;BME280;5307;42.548;22.968;2023-09-19T04:40:06;94180.22;;;13.20;100.00
10518;BME280;5307;42.548;22.968;2023-09-19T04:42:38;94189.03;;;13.15;100.00
10518;BME280;5307;42.548;22.968;2023-09-19T04:45:05;94195.34;;;13.43;100.00
10518;BME280;5307;42.548;22.968;2023-09-19T04:47:32;94190.00;;;13.30;100.00
10518;BME280;5307;42.548;22.968;2023-09-19T04:49:59;94196.72;;;13.56;100.00
10518;BME280;5307;42.548;22.968;2023-09-19T04:52:26;94193.81;;;13.51;100.00
10518;BME280;5307;42.548;22.968;2023-09-19T04:54:54;94201.88;;;13.63;100.00
10518;BME280;5307;42.548;22.968;2023-09-19T04:57:21;94192.88;;;13.35;100.00
10518;BME280;5307;42.548;22.968;2023-09-19T04:59:48;94189.09;;;13.51;100.00
10518;BME280;5307;42.548;22.968;2023-09-19T05:02:15;94185.38;;;13.18;100.00
10518;BME280;5307;42.548;22.968;2023-09-19T05:04:42;94191.03;;;13.14;100.00
10518;BME280;5307;42.548;22.968;2023-09-19T05:07:09;94188.59;;;13.16;100.00
10518;BME280;5307;42.548;22.968;2023-09-19T05:09:37;94182.69;;;13.27;100.00
10518;BME280;5307;42.548;22.968;2023-09-19T05:12:05;94188.31;;;13.32;100.00
10518;BME280;5307;42.548;22.968;2023-09-19T05:14:32;94195.16;;;13.74;100.00
10518;BME280;5307;42.548;22.968;2023-09-19T05:16:59;94192.06;;;14.08;100.00
10518;BME280;5307;42.548;22.968;2023-09-19T05:19:25;94188.88;;;14.10;100.00
10518;BME280;5307;42.548;22.968;2023-09-19T05:21:52;94188.97;;;14.24;100.00
10518;BME280;5307;42.548;22.968;2023-09-19T05:24:20;94183.97;;;14.14;100.00
10518;BME280;5307;42.548;22.968;2023-09-19T05:26:49;94187.22;;;13.94;100.00
10518;BME280;5307;42.548;22.968;2023-09-19T05:29:17;94191.78;;;13.97;100.00
10518;BME280;5307;42.548;22.968;2023-09-19T05:31:43;94189.75;;;14.25;100.00
10518;BME280;5307;42.548;22.968;2023-09-19T05:34:10;94181.44;;;14.34;100.00
10518;BME280;5307;42.548;22.968;2023-09-19T05:36:37;94186.00;;;14.55;100.00
10518;BME280;5307;42.548;22.968;2023-09-19T05:39:05;94172.03;;;14.68;100.00
10518;BME280;5307;42.548;22.968;2023-09-19T05:41:34;94175.75;;;14.56;100.00
10518;BME280;5307;42.548;22.968;2023-09-19T05:44:02;94175.59;;;14.60;100.00
10518;BME280;5307;42.548;22.968;2023-09-19T05:46:30;94174.97;;;14.65;100.00
10518;BME280;5307;42.548;22.968;2023-09-19T05:48:57;94186.09;;;14.61;100.00
10518;BME280;5307;42.548;22.968;2023-09-19T05:51:24;94180.06;;;14.81;100.00
10518;BME280;5307;42.548;22.968;2023-09-19T05:53:54;94179.06;;;14.69;100.00
10518;BME280;5307;42.548;22.968;2023-09-19T05:56:21;94172.03;;;14.68;100.00
10518;BME280;5307;42.548;22.968;2023-09-19T05:58:48;94165.06;;;14.58;100.00
10518;BME280;5307;42.548;22.968;2023-09-19T06:01:17;94164.66;;;14.74;100.00
10518;BME280;5307;42.548;22.968;2023-09-19T06:03:45;94163.56;;;14.81;100.00
10518;BME280;5307;42.548;22.968;2023-09-19T06:06:12;94159.22;;;14.89;100.00
10518;BME280;5307;42.548;22.968;2023-09-19T06:08:39;94153.91;;;14.85;100.00
10518;BME280;5307;42.548;22.968;2023-09-19T06:11:05;94158.22;;;14.77;100.00
10518;BME280;5307;42.548;22.968;2023-09-19T06:13:34;94153.75;;;14.56;100.00
10518;BME280;5307;42.548;22.968;2023-09-19T06:16:01;94164.19;;;14.52;100.00
10518;BME280;5307;42.548;22.968;2023-09-19T06:18:30;94162.53;;;14.78;100.00
10518;BME280;5307;42.548;22.968;2023-09-19T06:21:00;94158.06;;;15.29;100.00
10518;BME280;5307;42.548;22.968;2023-09-19T06:23:32;94160.09;;;15.19;100.00
10518;BME280;5307;42.548;22.968;2023-09-19T06:25:59;94163.88;;;15.45;100.00
10518;BME280;5307;42.548;22.968;2023-09-19T06:28:26;94166.06;;;15.41;100.00
10518;BME280;5307;42.548;22.968;2023-09-19T06:30:53;94167.97;;;15.89;100.00
10518;BME280;5307;42.548;22.968;2023-09-19T06:33:20;94167.97;;;16.03;100.00
10518;BME280;5307;42.548;22.968;2023-09-19T06:35:48;94157.34;;;15.82;100.00
10518;BME280;5307;42.548;22.968;2023-09-19T06:38:17;94161.41;;;15.86;100.00
10518;BME280;5307;42.548;22.968;2023-09-19T06:40:44;94158.84;;;15.97;100.00
10518;BME280;5307;42.548;22.968;2023-09-19T06:43:11;94155.16;;;16.00;100.00
10518;BME280;5307;42.548;22.968;2023-09-19T06:45:39;94163.13;;;15.98;100.00
10518;BME280;5307;42.548;22.968;2023-09-19T06:48:08;94164.56;;;15.79;100.00
10518;BME280;5307;42.548;22.968;2023-09-19T06:50:35;94170.91;;;16.15;100.00
10518;BME280;5307;42.548;22.968;2023-09-19T06:53:02;94168.84;;;16.24;100.00
10518;BME280;5307;42.548;22.968;2023-09-19T06:55:32;94168.06;;;16.24;100.00
10518;BME280;5307;42.548;22.968;2023-09-19T06:57:59;94168.25;;;16.35;100.00
10518;BME280;5307;42.548;22.968;2023-09-19T07:00:26;94174.22;;;16.48;100.00
10518;BME280;5307;42.548;22.968;2023-09-19T07:02:57;94176.13;;;16.42;100.00
10518;BME280;5307;42.548;22.968;2023-09-19T07:05:26;94178.00;;;16.66;100.00
10518;BME280;5307;42.548;22.968;2023-09-19T07:07:54;94168.41;;;16.46;100.00
10518;BME280;5307;42.548;22.968;2023-09-19T07:13:32;94162.31;;;16.72;100.00
10518;BME280;5307;42.548;22.968;2023-09-19T07:15:59;94167.63;;;17.10;100.00
10518;BME280;5307;42.548;22.968;2023-09-19T07:18:26;94173.56;;;17.03;100.00
10518;BME280;5307;42.548;22.968;2023-09-19T07:20:57;94179.41;;;17.31;99.89
10518;BME280;5307;42.548;22.968;2023-09-19T07:23:26;94177.84;;;17.04;99.20
10518;BME280;5307;42.548;22.968;2023-09-19T07:25:56;94167.69;;;17.16;97.26
10518;BME280;5307;42.548;22.968;2023-09-19T07:28:24;94173.56;;;17.44;95.84
10518;BME280;5307;42.548;22.968;2023-09-19T07:30:52;94169.97;;;17.38;93.09
10518;BME280;5307;42.548;22.968;2023-09-19T07:33:19;94161.75;;;17.43;90.86
10518;BME280;5307;42.548;22.968;2023-09-19T07:35:46;94155.63;;;17.74;91.10
10518;BME280;5307;42.548;22.968;2023-09-19T07:38:13;94168.94;;;17.76;88.32
10518;BME280;5307;42.548;22.968;2023-09-19T07:40:40;94165.84;;;18.20;85.78
10518;BME280;5307;42.548;22.968;2023-09-19T07:43:07;94167.09;;;18.19;84.89
10518;BME280;5307;42.548;22.968;2023-09-19T07:45:34;94159.75;;;18.42;86.41
10518;BME280;5307;42.548;22.968;2023-09-19T07:48:03;94162.81;;;18.50;83.07
10518;BME280;5307;42.548;22.968;2023-09-19T07:50:33;94155.09;;;18.91;81.15
10518;BME280;5307;42.548;22.968;2023-09-19T07:53:02;94154.28;;;18.85;80.17
10518;BME280;5307;42.548;22.968;2023-09-19T07:55:30;94147.22;;;18.84;79.07
10518;BME280;5307;42.548;22.968;2023-09-19T07:57:59;94148.81;;;18.90;78.52
10518;BME280;5307;42.548;22.968;2023-09-19T08:00:25;94153.31;;;18.88;77.65
10518;BME280;5307;42.548;22.968;2023-09-19T08:02:52;94148.19;;;19.18;77.22
10518;BME280;5307;42.548;22.968;2023-09-19T08:05:21;94146.38;;;19.09;76.77
10518;BME280;5307;42.548;22.968;2023-09-19T08:07:47;94140.22;;;18.88;77.95
10518;BME280;5307;42.548;22.968;2023-09-19T08:10:15;94141.78;;;18.95;78.15
10518;BME280;5307;42.548;22.968;2023-09-19T08:12:45;94155.06;;;18.54;78.51
10518;BME280;5307;42.548;22.968;2023-09-19T08:15:13;94155.13;;;18.96;78.03
10518;BME280;5307;42.548;22.968;2023-09-19T08:17:40;94145.94;;;19.27;77.93
10518;BME280;5307;42.548;22.968;2023-09-19T08:20:08;94155.50;;;18.78;78.23
10518;BME280;5307;42.548;22.968;2023-09-19T08:22:47;94153.09;;;19.45;76.27
10518;BME280;5307;42.548;22.968;2023-09-19T08:25:14;94148.72;;;19.22;76.58
10518;BME280;5307;42.548;22.968;2023-09-19T08:27:43;94151.47;;;19.16;77.25
10518;BME280;5307;42.548;22.968;2023-09-19T08:30:13;94148.69;;;18.74;77.30
10518;BME280;5307;42.548;22.968;2023-09-19T08:32:40;94150.22;;;19.17;77.51
10518;BME280;5307;42.548;22.968;2023-09-19T08:35:08;94139.63;;;19.16;76.75
10518;BME280;5307;42.548;22.968;2023-09-19T08:37:35;94144.53;;;18.89;76.50
10518;BME280;5307;42.548;22.968;2023-09-19T08:40:04;94125.06;;;19.26;76.58
10518;BME280;5307;42.548;22.968;2023-09-19T08:42:47;94129.94;;;19.48;75.84
10518;BME280;5307;42.548;22.968;2023-09-19T08:45:15;94124.03;;;19.89;73.89
10518;BME280;5307;42.548;22.968;2023-09-19T08:47:45;94129.09;;;20.07;74.56
10518;BME280;5307;42.548;22.968;2023-09-19T08:50:19;94130.13;;;20.15;74.39
10518;BME280;5307;42.548;22.968;2023-09-19T08:52:46;94136.34;;;19.71;72.70
10518;BME280;5307;42.548;22.968;2023-09-19T08:55:17;94129.34;;;20.77;70.44
10518;BME280;5307;42.548;22.968;2023-09-19T08:57:49;94140.16;;;21.14;71.00
10518;BME280;5307;42.548;22.968;2023-09-19T09:00:18;94133.41;;;20.14;70.24
10518;BME280;5307;42.548;22.968;2023-09-19T09:02:46;94112.72;;;20.65;70.27
10518;BME280;5307;42.548;22.968;2023-09-19T09:05:16;94124.81;;;20.85;70.21
10518;BME280;5307;42.548;22.968;2023-09-19T09:07:48;94124.28;;;19.91;71.61
10518;BME280;5307;42.548;22.968;2023-09-19T09:10:18;94119.81;;;20.55;72.93
10518;BME280;5307;42.548;22.968;2023-09-19T09:12:48;94114.25;;;20.55;71.31
10518;BME280;5307;42.548;22.968;2023-09-19T09:15:16;94109.22;;;20.48;71.32
10518;BME280;5307;42.548;22.968;2023-09-19T09:17:46;94109.94;;;20.65;72.31
10518;BME280;5307;42.548;22.968;2023-09-19T09:20:14;94111.16;;;20.98;70.92
10518;BME280;5307;42.548;22.968;2023-09-19T09:22:50;94096.31;;;20.67;70.80
10518;BME280;5307;42.548;22.968;2023-09-19T09:25:19;94089.94;;;20.95;68.58
10518;BME280;5307;42.548;22.968;2023-09-19T09:27:58;94092.06;;;20.27;68.13
10518;BME280;5307;42.548;22.968;2023-09-19T09:30:36;94094.13;;;21.24;66.92
10518;BME280;5307;42.548;22.968;2023-09-19T09:33:10;94093.25;;;20.82;65.47
10518;BME280;5307;42.548;22.968;2023-09-19T09:35:37;94088.53;;;21.46;65.38
10518;BME280;5307;42.548;22.968;2023-09-19T09:38:13;94088.25;;;21.50;64.69
10518;BME280;5307;42.548;22.968;2023-09-19T09:40:49;94086.34;;;21.11;64.15
10518;BME280;5307;42.548;22.968;2023-09-19T09:43:31;94080.94;;;20.61;65.07
10518;BME280;5307;42.548;22.968;2023-09-19T09:46:09;94082.84;;;21.05;64.71
10518;BME280;5307;42.548;22.968;2023-09-19T09:48:59;94079.81;;;21.03;64.60
10518;BME280;5307;42.548;22.968;2023-09-19T09:51:41;94075.56;;;21.60;65.98
10518;BME280;5307;42.548;22.968;2023-09-19T09:54:11;94074.97;;;21.20;63.78
10518;BME280;5307;42.548;22.968;2023-09-19T09:56:56;94077.03;;;21.09;64.48
10518;BME280;5307;42.548;22.968;2023-09-19T09:59:52;94072.97;;;21.26;64.21
10518;BME280;5307;42.548;22.968;2023-09-19T10:02:24;94075.47;;;21.19;64.55
10518;BME280;5307;42.548;22.968;2023-09-19T10:04:54;94074.28;;;21.03;62.97
10518;BME280;5307;42.548;22.968;2023-09-19T10:07:39;94067.72;;;21.00;62.30
10518;BME280;5307;42.548;22.968;2023-09-19T10:10:08;94063.13;;;21.14;61.82
10518;BME280;5307;42.548;22.968;2023-09-19T10:12:47;94074.28;;;21.03;63.31
10518;BME280;5307;42.548;22.968;2023-09-19T10:15:15;94074.75;;;21.13;64.21
10518;BME280;5307;42.548;22.968;2023-09-19T10:17:43;94074.66;;;21.41;64.44
10518;BME280;5307;42.548;22.968;2023-09-19T10:20:15;94064.09;;;21.22;63.95
10518;BME280;5307;42.548;22.968;2023-09-19T10:22:59;94067.72;;;22.00;64.57
10518;BME280;5307;42.548;22.968;2023-09-19T10:25:27;94057.56;;;22.38;62.00
10518;BME280;5307;42.548;22.968;2023-09-19T10:28:00;94054.97;;;22.45;64.17
10518;BME280;5307;42.548;22.968;2023-09-19T10:30:29;94046.56;;;22.27;61.93
10518;BME280;5307;42.548;22.968;2023-09-19T10:33:00;94045.25;;;22.58;64.87
10518;BME280;5307;42.548;22.968;2023-09-19T10:35:28;94035.72;;;22.47;63.63
10518;BME280;5307;42.548;22.968;2023-09-19T10:37:57;94039.91;;;22.60;63.63
10518;BME280;5307;42.548;22.968;2023-09-19T10:40:27;94034.34;;;22.60;62.81
10518;BME280;5307;42.548;22.968;2023-09-19T10:43:02;94035.16;;;22.79;60.56
10518;BME280;5307;42.548;22.968;2023-09-19T10:45:31;94035.41;;;22.57;61.18
10518;BME280;5307;42.548;22.968;2023-09-19T10:47:58;94030.47;;;22.68;65.14
10518;BME280;5307;42.548;22.968;2023-09-19T10:50:27;94040.09;;;22.92;63.38
10518;BME280;5307;42.548;22.968;2023-09-19T10:53:00;94039.63;;;23.12;62.71
10518;BME280;5307;42.548;22.968;2023-09-19T10:55:31;94034.13;;;22.82;62.46
10518;BME280;5307;42.548;22.968;2023-09-19T10:58:02;94028.66;;;22.71;61.81
10518;BME280;5307;42.548;22.968;2023-09-19T11:00:51;94022.72;;;22.80;61.44
10518;BME280;5307;42.548;22.968;2023-09-19T11:03:19;94014.91;;;23.03;61.14
10518;BME280;5307;42.548;22.968;2023-09-19T11:06:02;94011.50;;;22.67;61.09
10518;BME280;5307;42.548;22.968;2023-09-19T11:08:57;94008.56;;;22.84;60.39
10518;BME280;5307;42.548;22.968;2023-09-19T11:11:42;94005.34;;;22.98;61.41
10518;BME280;5307;42.548;22.968;2023-09-19T11:14:37;94008.31;;;23.25;61.94
10518;BME280;5307;42.548;22.968;2023-09-19T11:20:25;93996.88;;;23.28;59.78
10518;BME280;5307;42.548;22.968;2023-09-19T11:23:23;93989.91;;;23.16;59.36
10518;BME280;5307;42.548;22.968;2023-09-19T11:25:53;93989.09;;;23.02;56.68
10518;BME280;5307;42.548;22.968;2023-09-19T11:28:30;93989.53;;;23.44;57.89
10518;BME280;5307;42.548;22.968;2023-09-19T11:30:58;93983.69;;;23.66;59.16
10518;BME280;5307;42.548;22.968;2023-09-19T11:33:25;93974.25;;;23.69;59.77
10518;BME280;5307;42.548;22.968;2023-09-19T11:36:03;93966.88;;;24.17;56.87
10518;BME280;5307;42.548;22.968;2023-09-19T11:38:59;93968.59;;;24.07;57.98
10518;BME280;5307;42.548;22.968;2023-09-19T11:41:37;93969.59;;;23.91;57.58
10518;BME280;5307;42.548;22.968;2023-09-19T11:44:32;93966.06;;;23.90;57.95
10518;BME280;5307;42.548;22.968;2023-09-19T11:47:05;93963.44;;;24.11;59.55
10518;BME280;5307;42.548;22.968;2023-09-19T11:49:32;93951.53;;;24.24;58.35
10518;BME280;5307;42.548;22.968;2023-09-19T11:52:00;93952.38;;;23.74;58.47
10518;BME280;5307;42.548;22.968;2023-09-19T11:54:31;93944.53;;;24.17;57.92
10518;BME280;5307;42.548;22.968;2023-09-19T11:56:58;93937.03;;;24.12;56.45
10518;BME280;5307;42.548;22.968;2023-09-19T11:59:27;93945.03;;;24.35;58.59
10518;BME280;5307;42.548;22.968;2023-09-19T12:01:56;93930.84;;;24.33;57.85
10518;BME280;5307;42.548;22.968;2023-09-19T12:04:38;93933.97;;;24.55;57.80
10518;BME280;5307;42.548;22.968;2023-09-19T12:07:07;93920.13;;;24.50;56.13
10518;BME280;5307;42.548;22.968;2023-09-19T12:09:39;93921.09;;;24.39;55.81
10518;BME280;5307;42.548;22.968;2023-09-19T12:12:09;93907.34;;;24.41;55.16
10518;BME280;5307;42.548;22.968;2023-09-19T12:14:38;93919.69;;;24.59;56.71
10518;BME280;5307;42.548;22.968;2023-09-19T12:17:07;93916.44;;;24.28;54.50
10518;BME280;5307;42.548;22.968;2023-09-19T12:19:34;93914.31;;;24.35;54.73
10518;BME280;5307;42.548;22.968;2023-09-19T12:22:03;93913.00;;;24.09;55.00
10518;BME280;5307;42.548;22.968;2023-09-19T12:24:31;93909.13;;;24.12;55.05
10518;BME280;5307;42.548;22.968;2023-09-19T12:27:02;93899.25;;;24.24;54.68
10518;BME280;5307;42.548;22.968;2023-09-19T12:29:43;93905.38;;;24.10;55.67
10518;BME280;5307;42.548;22.968;2023-09-19T12:32:11;93909.75;;;24.05;56.58
10518;BME280;5307;42.548;22.968;2023-09-19T12:34:38;93908.16;;;24.10;55.81
10518;BME280;5307;42.548;22.968;2023-09-19T12:37:23;93897.22;;;24.12;55.02
10518;BME280;5307;42.548;22.968;2023-09-19T12:40:05;93889.09;;;24.40;59.01
10518;BME280;5307;42.548;22.968;2023-09-19T12:42:43;93884.47;;;24.30;56.20
10518;BME280;5307;42.548;22.968;2023-09-19T12:45:10;93888.09;;;24.24;58.64
10518;BME280;5307;42.548;22.968;2023-09-19T12:47:39;93893.00;;;24.05;58.41
10518;BME280;5307;42.548;22.968;2023-09-19T12:50:10;93893.03;;;24.18;57.92
10518;BME280;5307;42.548;22.968;2023-09-19T12:52:45;93889.28;;;24.29;55.93
10518;BME280;5307;42.548;22.968;2023-09-19T12:55:23;93884.81;;;24.39;57.18
10518;BME280;5307;42.548;22.968;2023-09-19T12:58:07;93876.50;;;24.47;56.56
10518;BME280;5307;42.548;22.968;2023-09-19T13:00:35;93876.38;;;24.13;57.22
10518;BME280;5307;42.548;22.968;2023-09-19T13:03:16;93874.81;;;24.31;57.79
10518;BME280;5307;42.548;22.968;2023-09-19T13:05:52;93872.31;;;24.27;54.82
10518;BME280;5307;42.548;22.968;2023-09-19T13:08:25;93863.22;;;24.40;55.34
10518;BME280;5307;42.548;22.968;2023-09-19T13:11:05;93870.94;;;24.34;54.77
10518;BME280;5307;42.548;22.968;2023-09-19T13:13:36;93860.31;;;24.32;55.14
10518;BME280;5307;42.548;22.968;2023-09-19T13:16:03;93866.00;;;24.40;55.94
10518;BME280;5307;42.548;22.968;2023-09-19T13:18:42;93864.84;;;24.35;54.56